sensor_id;sensor_type;location;lat;lon;timestamp;pressure;altitude;pressure_sealevel;temperature;humidity
61318;BME280;47201;40.428;-8.436;2023-03-15T00:01:37;101213.00;;;9.02;100.00
61318;BME280;47201;40.428;-8.436;2023-03-15T00:03:39;101207.84;;;9.07;100.00
61318;BME280;47201;40.428;-8.436;2023-03-15T00:05:43;101213.97;;;9.11;100.00
61318;BME280;47201;40.428;-8.436;2023-03-15T00:07:43;101214.03;;;9.14;100.00
61318;BME280;47201;40.428;-8.436;2023-03-15T00:10:02;101212.41;;;9.22;100.00
61318;BME280;47201;40.428;-8.436;2023-03-15T00:12:22;101212.47;;;9.28;100.00
61318;BME280;47201;40.428;-8.436;2023-03-15T00:14:41;101208.16;;;9.35;100.00
61318;BME280;47201;40.428;-8.436;2023-03-15T00:16:41;101210.81;;;9.36;100.00
61318;BME280;47201;40.428;-8.436;2023-03-15T00:18:42;101209.19;;;9.45;100.00
61318;BME280;47201;40.428;-8.436;2023-03-15T00:20:43;101199.66;;;9.50;100.00
61318;BME280;47201;40.428;-8.436;2023-03-15T00:22:43;101201.53;;;9.65;100.00
61318;BME280;47201;40.428;-8.436;2023-03-15T00:24:44;101196.38;;;9.69;100.00
61318;BME280;47201;40.428;-8.436;2023-03-15T00:26:44;101197.31;;;9.79;100.00
61318;BME280;47201;40.428;-8.436;2023-03-15T00:29:04;101189.63;;;9.90;100.00
61318;BME280;47201;40.428;-8.436;2023-03-15T00:31:06;101185.31;;;9.95;100.00
61318;BME280;47201;40.428;-8.436;2023-03-15T00:33:27;101183.53;;;9.94;100.00
61318;BME280;47201;40.428;-8.436;2023-03-15T00:35:28;101189.66;;;9.98;100.00
61318;BME280;47201;40.428;-8.436;2023-03-15T00:37:29;101185.31;;;9.98;100.00
61318;BME280;47201;40.428;-8.436;2023-03-15T00:39:30;101177.47;;;9.98;100.00
61318;BME280;47201;40.428;-8.436;2023-03-15T00:41:50;101167.94;;;10.02;100.00
61318;BME280;47201;40.428;-8.436;2023-03-15T00:43:56;101167.97;;;10.04;100.00
61318;BME280;47201;40.428;-8.436;2023-03-15T00:45:57;101169.72;;;10.09;100.00
61318;BME280;47201;40.428;-8.436;2023-03-15T00:48:16;101165.41;;;10.11;100.00
61318;BME280;47201;40.428;-8.436;2023-03-15T00:50:16;101161.00;;;10.06;100.00
61318;BME280;47201;40.428;-8.436;2023-03-15T00:52:36;101157.47;;;9.97;100.00
61318;BME280;47201;40.428;-8.436;2023-03-15T00:54:36;101157.44;;;9.94;100.00
61318;BME280;47201;40.428;-8.436;2023-03-15T00:56:37;101151.25;;;9.86;100.00
61318;BME280;47201;40.428;-8.436;2023-03-15T00:58:38;101150.22;;;9.64;100.00
61318;BME280;47201;40.428;-8.436;2023-03-15T01:00:39;101157.84;;;9.44;100.00
61318;BME280;47201;40.428;-8.436;2023-03-15T01:02:43;101152.41;;;9.25;100.00
61318;BME280;47201;40.428;-8.436;2023-03-15T01:05:03;101167.88;;;9.10;100.00
61318;BME280;47201;40.428;-8.436;2023-03-15T01:07:04;101165.06;;;8.93;100.00
61318;BME280;47201;40.428;-8.436;2023-03-15T01:09:23;101158.75;;;8.73;100.00
61318;BME280;47201;40.428;-8.436;2023-03-15T01:11:25;101163.88;;;8.67;100.00
61318;BME280;47201;40.428;-8.436;2023-03-15T01:13:26;101154.97;;;8.51;100.00
61318;BME280;47201;40.428;-8.436;2023-03-15T01:15:27;101163.34;;;8.32;100.00
61318;BME280;47201;40.428;-8.436;2023-03-15T01:17:28;101160.47;;;8.15;100.00
61318;BME280;47201;40.428;-8.436;2023-03-15T01:19:28;101157.84;;;8.12;100.00
61318;BME280;47201;40.428;-8.436;2023-03-15T01:21:29;101154.47;;;8.19;100.00
61318;BME280;47201;40.428;-8.436;2023-03-15T01:23:29;101150.88;;;8.10;100.00
61318;BME280;47201;40.428;-8.436;2023-03-15T01:25:49;101152.66;;;8.15;100.00
61318;BME280;47201;40.428;-8.436;2023-03-15T01:27:51;101149.13;;;8.09;100.00
61318;BME280;47201;40.428;-8.436;2023-03-15T01:30:09;101149.81;;;7.99;100.00
61318;BME280;47201;40.428;-8.436;2023-03-15T01:32:28;101154.22;;;8.03;100.00
61318;BME280;47201;40.428;-8.436;2023-03-15T01:34:29;101152.41;;;7.98;100.00
61318;BME280;47201;40.428;-8.436;2023-03-15T01:36:49;101142.84;;;7.98;100.00
61318;BME280;47201;40.428;-8.436;2023-03-15T01:38:52;101148.84;;;7.92;100.00
61318;BME280;47201;40.428;-8.436;2023-03-15T01:40:59;101162.56;;;7.84;100.00
61318;BME280;47201;40.428;-8.436;2023-03-15T01:45:03;101151.94;;;7.70;100.00
61318;BME280;47201;40.428;-8.436;2023-03-15T01:47:03;101147.59;;;7.69;100.00
61318;BME280;47201;40.428;-8.436;2023-03-15T01:49:08;101145.16;;;7.80;100.00
61318;BME280;47201;40.428;-8.436;2023-03-15T01:51:57;101140.81;;;7.78;100.00
61318;BME280;47201;40.428;-8.436;2023-03-15T01:53:38;101137.34;;;7.78;100.00
61318;BME280;47201;40.428;-8.436;2023-03-15T01:55:41;101132.19;;;7.83;100.00
61318;BME280;47201;40.428;-8.436;2023-03-15T01:57:47;101127.06;;;7.87;100.00
61318;BME280;47201;40.428;-8.436;2023-03-15T01:59:51;101125.25;;;7.82;100.00
61318;BME280;47201;40.428;-8.436;2023-03-15T02:01:54;101134.59;;;7.72;100.00
61318;BME280;47201;40.428;-8.436;2023-03-15T02:04:17;101128.38;;;7.62;100.00
61318;BME280;47201;40.428;-8.436;2023-03-15T02:06:27;101136.06;;;7.54;100.00
61318;BME280;47201;40.428;-8.436;2023-03-15T02:08:51;101135.88;;;7.45;100.00
61318;BME280;47201;40.428;-8.436;2023-03-15T02:10:53;101130.50;;;7.36;100.00
61318;BME280;47201;40.428;-8.436;2023-03-15T02:12:55;101125.09;;;7.25;100.00
61318;BME280;47201;40.428;-8.436;2023-03-15T02:15:15;101123.97;;;7.10;100.00
61318;BME280;47201;40.428;-8.436;2023-03-15T02:17:15;101128.16;;;7.04;100.00
61318;BME280;47201;40.428;-8.436;2023-03-15T02:19:23;101121.25;;;7.04;100.00
61318;BME280;47201;40.428;-8.436;2023-03-15T02:23:32;101120.75;;;7.24;100.00
61318;BME280;47201;40.428;-8.436;2023-03-15T02:27:37;101115.94;;;7.45;100.00
61318;BME280;47201;40.428;-8.436;2023-03-15T02:29:38;101110.78;;;7.47;100.00
61318;BME280;47201;40.428;-8.436;2023-03-15T02:31:39;101120.38;;;7.50;100.00
61318;BME280;47201;40.428;-8.436;2023-03-15T02:33:44;101113.38;;;7.47;100.00
61318;BME280;47201;40.428;-8.436;2023-03-15T02:35:45;101117.69;;;7.45;100.00
61318;BME280;47201;40.428;-8.436;2023-03-15T02:37:47;101112.53;;;7.48;100.00
61318;BME280;47201;40.428;-8.436;2023-03-15T02:39:49;101111.66;;;7.47;100.00
61318;BME280;47201;40.428;-8.436;2023-03-15T02:41:51;101110.81;;;7.50;100.00
61318;BME280;47201;40.428;-8.436;2023-03-15T02:43:53;101111.81;;;7.55;100.00
61318;BME280;47201;40.428;-8.436;2023-03-15T02:45:55;101104.84;;;7.54;100.00
61318;BME280;47201;40.428;-8.436;2023-03-15T02:47:58;101102.28;;;7.57;100.00
61318;BME280;47201;40.428;-8.436;2023-03-15T02:49:59;101097.91;;;7.56;100.00
61318;BME280;47201;40.428;-8.436;2023-03-15T02:52:00;101094.25;;;7.45;100.00
61318;BME280;47201;40.428;-8.436;2023-03-15T02:54:00;101091.78;;;7.53;100.00
61318;BME280;47201;40.428;-8.436;2023-03-15T02:56:01;101083.22;;;7.60;100.00
61318;BME280;47201;40.428;-8.436;2023-03-15T02:58:21;101079.78;;;7.61;100.00
61318;BME280;47201;40.428;-8.436;2023-03-15T03:00:22;101074.69;;;7.67;100.00
61318;BME280;47201;40.428;-8.436;2023-03-15T03:02:23;101078.16;;;7.66;100.00
61318;BME280;47201;40.428;-8.436;2023-03-15T03:04:24;101073.78;;;7.65;100.00
61318;BME280;47201;40.428;-8.436;2023-03-15T03:06:28;101071.88;;;7.55;100.00
61318;BME280;47201;40.428;-8.436;2023-03-15T03:08:29;101070.00;;;7.44;100.00
61318;BME280;47201;40.428;-8.436;2023-03-15T03:10:29;101067.22;;;7.35;100.00
61318;BME280;47201;40.428;-8.436;2023-03-15T03:12:48;101067.91;;;7.25;100.00
61318;BME280;47201;40.428;-8.436;2023-03-15T03:14:54;101061.09;;;7.32;100.00
61318;BME280;47201;40.428;-8.436;2023-03-15T03:16:57;101053.31;;;7.35;100.00
61318;BME280;47201;40.428;-8.436;2023-03-15T03:18:57;101051.56;;;7.34;100.00
61318;BME280;47201;40.428;-8.436;2023-03-15T03:20:58;101057.59;;;7.31;100.00
61318;BME280;47201;40.428;-8.436;2023-03-15T03:23:00;101060.19;;;7.31;100.00
61318;BME280;47201;40.428;-8.436;2023-03-15T03:25:06;101053.25;;;7.30;100.00
61318;BME280;47201;40.428;-8.436;2023-03-15T03:27:08;101054.91;;;7.26;100.00
61318;BME280;47201;40.428;-8.436;2023-03-15T03:29:11;101059.13;;;7.18;100.00
61318;BME280;47201;40.428;-8.436;2023-03-15T03:31:15;101052.00;;;7.08;100.00
61318;BME280;47201;40.428;-8.436;2023-03-15T03:33:16;101047.56;;;7.04;100.00
61318;BME280;47201;40.428;-8.436;2023-03-15T03:35:20;101049.22;;;6.98;100.00
61318;BME280;47201;40.428;-8.436;2023-03-15T03:37:21;101048.25;;;6.93;100.00
61318;BME280;47201;40.428;-8.436;2023-03-15T03:39:32;101046.50;;;6.91;100.00
61318;BME280;47201;40.428;-8.436;2023-03-15T03:41:34;101040.38;;;6.87;100.00
61318;BME280;47201;40.428;-8.436;2023-03-15T03:43:35;101044.78;;;6.93;100.00
61318;BME280;47201;40.428;-8.436;2023-03-15T03:45:36;101041.41;;;6.98;100.00
61318;BME280;47201;40.428;-8.436;2023-03-15T03:47:58;101039.81;;;7.05;100.00
61318;BME280;47201;40.428;-8.436;2023-03-15T03:49:59;101026.09;;;7.12;100.00
61318;BME280;47201;40.428;-8.436;2023-03-15T03:52:00;101040.78;;;7.12;100.00
61318;BME280;47201;40.428;-8.436;2023-03-15T03:54:02;101029.47;;;7.08;100.00
61318;BME280;47201;40.428;-8.436;2023-03-15T03:56:03;101019.88;;;7.04;100.00
61318;BME280;47201;40.428;-8.436;2023-03-15T03:58:04;101023.09;;;6.91;100.00
61318;BME280;47201;40.428;-8.436;2023-03-15T04:00:12;101019.38;;;6.76;100.00
61318;BME280;47201;40.428;-8.436;2023-03-15T04:02:35;101020.13;;;6.72;100.00
61318;BME280;47201;40.428;-8.436;2023-03-15T04:04:54;101017.53;;;6.72;100.00
61318;BME280;47201;40.428;-8.436;2023-03-15T04:06:57;101008.19;;;6.82;100.00
61318;BME280;47201;40.428;-8.436;2023-03-15T04:09:05;101004.94;;;6.92;100.00
61318;BME280;47201;40.428;-8.436;2023-03-15T04:11:13;101006.66;;;6.92;100.00
61318;BME280;47201;40.428;-8.436;2023-03-15T04:13:18;101003.28;;;6.97;100.00
61318;BME280;47201;40.428;-8.436;2023-03-15T04:15:19;101010.13;;;6.92;100.00
61318;BME280;47201;40.428;-8.436;2023-03-15T04:17:22;100999.59;;;6.85;100.00
61318;BME280;47201;40.428;-8.436;2023-03-15T04:19:23;100998.81;;;6.90;100.00
61318;BME280;47201;40.428;-8.436;2023-03-15T04:21:25;100999.75;;;6.94;100.00
61318;BME280;47201;40.428;-8.436;2023-03-15T04:23:32;100997.94;;;6.88;100.00
61318;BME280;47201;40.428;-8.436;2023-03-15T04:26:00;101000.38;;;6.80;100.00
61318;BME280;47201;40.428;-8.436;2023-03-15T04:28:22;101004.75;;;6.83;100.00
61318;BME280;47201;40.428;-8.436;2023-03-15T04:30:49;100993.50;;;6.82;100.00
61318;BME280;47201;40.428;-8.436;2023-03-15T04:33:08;100989.88;;;6.74;100.00
61318;BME280;47201;40.428;-8.436;2023-03-15T04:35:33;100988.72;;;6.58;100.00
61318;BME280;47201;40.428;-8.436;2023-03-15T04:38:04;100989.38;;;6.49;100.00
61318;BME280;47201;40.428;-8.436;2023-03-15T04:40:32;100979.00;;;6.49;100.00
61318;BME280;47201;40.428;-8.436;2023-03-15T04:42:54;100982.81;;;6.67;100.00
61318;BME280;47201;40.428;-8.436;2023-03-15T04:45:13;100974.38;;;6.80;100.00
61318;BME280;47201;40.428;-8.436;2023-03-15T04:47:32;100973.53;;;6.81;100.00
61318;BME280;47201;40.428;-8.436;2023-03-15T04:49:51;100974.28;;;6.74;100.00
61318;BME280;47201;40.428;-8.436;2023-03-15T04:52:08;100966.31;;;6.65;100.00
61318;BME280;47201;40.428;-8.436;2023-03-15T04:54:28;100965.34;;;6.58;100.00
61318;BME280;47201;40.428;-8.436;2023-03-15T04:56:47;100966.94;;;6.53;100.00
61318;BME280;47201;40.428;-8.436;2023-03-15T04:59:03;100960.25;;;6.64;100.00
61318;BME280;47201;40.428;-8.436;2023-03-15T05:01:26;100961.41;;;6.80;100.00
61318;BME280;47201;40.428;-8.436;2023-03-15T05:03:46;100955.63;;;6.97;100.00
61318;BME280;47201;40.428;-8.436;2023-03-15T05:06:15;100954.13;;;7.11;100.00
61318;BME280;47201;40.428;-8.436;2023-03-15T05:08:27;100955.97;;;7.19;100.00
61318;BME280;47201;40.428;-8.436;2023-03-15T05:10:59;100955.22;;;7.24;100.00
61318;BME280;47201;40.428;-8.436;2023-03-15T05:13:19;100956.06;;;7.22;100.00
61318;BME280;47201;40.428;-8.436;2023-03-15T05:15:32;100947.38;;;7.23;100.00
61318;BME280;47201;40.428;-8.436;2023-03-15T05:17:51;100947.50;;;7.29;100.00
61318;BME280;47201;40.428;-8.436;2023-03-15T05:20:14;100945.00;;;7.35;100.00
61318;BME280;47201;40.428;-8.436;2023-03-15T05:22:36;100943.38;;;7.43;100.00
61318;BME280;47201;40.428;-8.436;2023-03-15T05:24:58;100940.81;;;7.46;100.00
61318;BME280;47201;40.428;-8.436;2023-03-15T05:27:21;100942.66;;;7.54;100.00
61318;BME280;47201;40.428;-8.436;2023-03-15T05:29:58;100937.50;;;7.57;100.00
61318;BME280;47201;40.428;-8.436;2023-03-15T05:32:34;100943.50;;;7.53;100.00
61318;BME280;47201;40.428;-8.436;2023-03-15T05:34:53;100947.75;;;7.47;100.00
61318;BME280;47201;40.428;-8.436;2023-03-15T05:37:12;100947.75;;;7.47;100.00
61318;BME280;47201;40.428;-8.436;2023-03-15T05:39:31;100953.88;;;7.51;100.00
61318;BME280;47201;40.428;-8.436;2023-03-15T05:41:52;100948.78;;;7.57;100.00
61318;BME280;47201;40.428;-8.436;2023-03-15T05:44:13;100945.31;;;7.58;100.00
61318;BME280;47201;40.428;-8.436;2023-03-15T05:46:34;100942.72;;;7.60;100.00
61318;BME280;47201;40.428;-8.436;2023-03-15T05:48:38;100942.72;;;7.60;100.00
61318;BME280;47201;40.428;-8.436;2023-03-15T05:50:57;100941.03;;;7.62;100.00
61318;BME280;47201;40.428;-8.436;2023-03-15T05:53:17;100946.25;;;7.63;100.00
61318;BME280;47201;40.428;-8.436;2023-03-15T05:55:36;100940.97;;;7.57;100.00
61318;BME280;47201;40.428;-8.436;2023-03-15T05:58:03;100943.63;;;7.62;100.00
61318;BME280;47201;40.428;-8.436;2023-03-15T06:00:22;100940.13;;;7.60;100.00
61318;BME280;47201;40.428;-8.436;2023-03-15T06:02:28;100941.03;;;7.62;100.00
61318;BME280;47201;40.428;-8.436;2023-03-15T06:04:45;100937.59;;;7.63;100.00
61318;BME280;47201;40.428;-8.436;2023-03-15T06:06:50;100941.88;;;7.59;100.00
61318;BME280;47201;40.428;-8.436;2023-03-15T06:08:52;100936.59;;;7.56;100.00
61318;BME280;47201;40.428;-8.436;2023-03-15T06:11:11;100933.16;;;7.56;100.00
61318;BME280;47201;40.428;-8.436;2023-03-15T06:13:12;100935.75;;;7.56;100.00
61318;BME280;47201;40.428;-8.436;2023-03-15T06:15:31;100937.44;;;7.54;100.00
61318;BME280;47201;40.428;-8.436;2023-03-15T06:17:33;100941.03;;;7.62;100.00
61318;BME280;47201;40.428;-8.436;2023-03-15T06:19:34;100931.53;;;7.62;100.00
61318;BME280;47201;40.428;-8.436;2023-03-15T06:21:34;100938.50;;;7.65;100.00
61318;BME280;47201;40.428;-8.436;2023-03-15T06:23:37;100927.25;;;7.69;100.00
61318;BME280;47201;40.428;-8.436;2023-03-15T06:25:37;100930.78;;;7.73;100.00
61318;BME280;47201;40.428;-8.436;2023-03-15T06:27:38;100935.25;;;7.82;100.00
61318;BME280;47201;40.428;-8.436;2023-03-15T06:29:39;100930.91;;;7.84;100.00
61318;BME280;47201;40.428;-8.436;2023-03-15T06:31:40;100932.59;;;7.78;100.00
61318;BME280;47201;40.428;-8.436;2023-03-15T06:33:43;100925.59;;;7.74;100.00
61318;BME280;47201;40.428;-8.436;2023-03-15T06:35:44;100920.34;;;7.71;100.00
61318;BME280;47201;40.428;-8.436;2023-03-15T06:37:46;100922.97;;;7.71;100.00
61318;BME280;47201;40.428;-8.436;2023-03-15T06:39:49;100920.28;;;7.67;100.00
61318;BME280;47201;40.428;-8.436;2023-03-15T06:41:51;100914.09;;;7.57;100.00
61318;BME280;47201;40.428;-8.436;2023-03-15T06:44:16;100915.84;;;7.58;100.00
61318;BME280;47201;40.428;-8.436;2023-03-15T06:46:17;100915.91;;;7.62;100.00
61318;BME280;47201;40.428;-8.436;2023-03-15T06:48:17;100906.28;;;7.58;100.00
61318;BME280;47201;40.428;-8.436;2023-03-15T06:50:18;100907.22;;;7.63;100.00
61318;BME280;47201;40.428;-8.436;2023-03-15T06:52:19;100908.06;;;7.61;100.00
61318;BME280;47201;40.428;-8.436;2023-03-15T06:54:20;100912.38;;;7.59;100.00
61318;BME280;47201;40.428;-8.436;2023-03-15T06:56:21;100914.06;;;7.55;100.00
61318;BME280;47201;40.428;-8.436;2023-03-15T06:58:21;100915.00;;;7.59;100.00
61318;BME280;47201;40.428;-8.436;2023-03-15T07:00:22;100912.56;;;7.71;100.00
61318;BME280;47201;40.428;-8.436;2023-03-15T07:02:23;100909.97;;;7.74;100.00
61318;BME280;47201;40.428;-8.436;2023-03-15T07:04:23;100907.38;;;7.74;100.00
61318;BME280;47201;40.428;-8.436;2023-03-15T07:06:24;100906.50;;;7.75;100.00
61318;BME280;47201;40.428;-8.436;2023-03-15T07:08:26;100903.00;;;7.72;100.00
61318;BME280;47201;40.428;-8.436;2023-03-15T07:10:27;100899.56;;;7.74;100.00
61318;BME280;47201;40.428;-8.436;2023-03-15T07:12:27;100907.34;;;7.73;100.00
61318;BME280;47201;40.428;-8.436;2023-03-15T07:14:28;100904.13;;;7.91;100.00
61318;BME280;47201;40.428;-8.436;2023-03-15T07:16:28;100902.28;;;8.56;100.00
61318;BME280;47201;40.428;-8.436;2023-03-15T07:18:31;100899.41;;;9.27;100.00
61318;BME280;47201;40.428;-8.436;2023-03-15T07:20:31;100903.19;;;9.78;100.00
61318;BME280;47201;40.428;-8.436;2023-03-15T07:22:50;100898.16;;;10.31;100.00
61318;BME280;47201;40.428;-8.436;2023-03-15T07:24:51;100890.38;;;10.67;100.00
61318;BME280;47201;40.428;-8.436;2023-03-15T07:27:11;100895.59;;;10.54;100.00
61318;BME280;47201;40.428;-8.436;2023-03-15T07:29:11;100894.72;;;10.40;100.00
61318;BME280;47201;40.428;-8.436;2023-03-15T07:31:12;100900.88;;;10.68;100.00
61318;BME280;47201;40.428;-8.436;2023-03-15T07:33:13;100900.78;;;11.59;100.00
61318;BME280;47201;40.428;-8.436;2023-03-15T07:35:13;100887.16;;;12.68;96.94
61318;BME280;47201;40.428;-8.436;2023-03-15T07:37:14;100885.50;;;13.59;85.72
61318;BME280;47201;40.428;-8.436;2023-03-15T07:39:28;100885.34;;;14.38;78.66
61318;BME280;47201;40.428;-8.436;2023-03-15T07:41:31;100883.19;;;14.68;76.00
61318;BME280;47201;40.428;-8.436;2023-03-15T07:43:40;100894.00;;;15.53;71.20
61318;BME280;47201;40.428;-8.436;2023-03-15T07:45:51;100889.88;;;15.86;68.72
61318;BME280;47201;40.428;-8.436;2023-03-15T07:47:52;100888.78;;;16.38;66.89
61318;BME280;47201;40.428;-8.436;2023-03-15T07:49:52;100881.06;;;17.04;63.66
61318;BME280;47201;40.428;-8.436;2023-03-15T07:51:56;100881.34;;;17.59;60.83
61318;BME280;47201;40.428;-8.436;2023-03-15T07:53:57;100877.59;;;18.28;57.15
61318;BME280;47201;40.428;-8.436;2023-03-15T07:55:57;100875.06;;;18.53;57.11
61318;BME280;47201;40.428;-8.436;2023-03-15T07:57:58;100877.59;;;19.11;54.79
61318;BME280;47201;40.428;-8.436;2023-03-15T07:59:59;100873.06;;;19.64;52.57
61318;BME280;47201;40.428;-8.436;2023-03-15T08:01:59;100869.81;;;20.05;52.86
61318;BME280;47201;40.428;-8.436;2023-03-15T08:04:00;100870.31;;;20.37;51.77
61318;BME280;47201;40.428;-8.436;2023-03-15T08:06:00;100870.75;;;20.48;50.89
61318;BME280;47201;40.428;-8.436;2023-03-15T08:08:01;100872.78;;;20.86;50.99
61318;BME280;47201;40.428;-8.436;2023-03-15T08:10:02;100870.69;;;20.94;50.94
61318;BME280;47201;40.428;-8.436;2023-03-15T08:12:04;100868.03;;;21.35;51.74
61318;BME280;47201;40.428;-8.436;2023-03-15T08:14:06;100870.97;;;21.48;52.53
61318;BME280;47201;40.428;-8.436;2023-03-15T08:16:07;100874.53;;;21.89;52.81
61318;BME280;47201;40.428;-8.436;2023-03-15T08:18:07;100865.16;;;22.37;52.50
61318;BME280;47201;40.428;-8.436;2023-03-15T08:20:09;100865.50;;;22.85;52.02
61318;BME280;47201;40.428;-8.436;2023-03-15T08:22:11;100866.94;;;23.61;51.50
61318;BME280;47201;40.428;-8.436;2023-03-15T08:24:12;100872.69;;;24.19;50.95
61318;BME280;47201;40.428;-8.436;2023-03-15T08:26:13;100869.09;;;24.82;51.01
61318;BME280;47201;40.428;-8.436;2023-03-15T08:28:17;100878.06;;;23.85;54.27
61318;BME280;47201;40.428;-8.436;2023-03-15T08:30:18;100875.19;;;24.06;55.03
61318;BME280;47201;40.428;-8.436;2023-03-15T08:32:19;100872.09;;;24.46;54.91
61318;BME280;47201;40.428;-8.436;2023-03-15T08:34:20;100867.66;;;25.07;54.89
61318;BME280;47201;40.428;-8.436;2023-03-15T08:36:21;100866.63;;;24.79;55.95
61318;BME280;47201;40.428;-8.436;2023-03-15T08:38:23;100876.97;;;23.89;60.15
61318;BME280;47201;40.428;-8.436;2023-03-15T08:40:25;100868.16;;;24.21;60.26
61318;BME280;47201;40.428;-8.436;2023-03-15T08:42:44;100875.63;;;24.14;60.84
61318;BME280;47201;40.428;-8.436;2023-03-15T08:44:45;100876.34;;;24.34;61.85
61318;BME280;47201;40.428;-8.436;2023-03-15T08:46:46;100871.53;;;24.55;61.48
61318;BME280;47201;40.428;-8.436;2023-03-15T08:48:46;100866.22;;;24.71;61.69
61318;BME280;47201;40.428;-8.436;2023-03-15T08:50:47;100867.69;;;25.36;60.71
61318;BME280;47201;40.428;-8.436;2023-03-15T08:52:49;100864.69;;;26.55;59.25
61318;BME280;47201;40.428;-8.436;2023-03-15T08:54:50;100867.28;;;26.84;58.51
61318;BME280;47201;40.428;-8.436;2023-03-15T09:03:11;100869.19;;;26.82;61.22
61318;BME280;47201;40.428;-8.436;2023-03-15T09:05:15;100867.97;;;26.18;63.14
61318;BME280;47201;40.428;-8.436;2023-03-15T09:07:15;100861.81;;;25.45;65.29
61318;BME280;47201;40.428;-8.436;2023-03-15T09:09:16;100872.00;;;25.96;65.00
61318;BME280;47201;40.428;-8.436;2023-03-15T09:11:16;100868.13;;;25.59;65.68
61318;BME280;47201;40.428;-8.436;2023-03-15T09:13:17;100863.31;;;24.90;67.53
61318;BME280;47201;40.428;-8.436;2023-03-15T09:15:18;100864.22;;;24.59;69.96
61318;BME280;47201;40.428;-8.436;2023-03-15T09:17:37;100869.16;;;24.66;69.43
61318;BME280;47201;40.428;-8.436;2023-03-15T09:19:38;100855.97;;;24.94;68.71
61318;BME280;47201;40.428;-8.436;2023-03-15T09:21:39;100863.38;;;25.19;68.54
61318;BME280;47201;40.428;-8.436;2023-03-15T09:23:40;100862.50;;;25.49;68.04
61318;BME280;47201;40.428;-8.436;2023-03-15T09:25:59;100856.84;;;25.68;68.18
61318;BME280;47201;40.428;-8.436;2023-03-15T09:27:59;100857.88;;;26.09;67.68
61318;BME280;47201;40.428;-8.436;2023-03-15T09:30:00;100850.44;;;26.54;65.75
61318;BME280;47201;40.428;-8.436;2023-03-15T09:32:01;100852.84;;;26.32;66.82
61318;BME280;47201;40.428;-8.436;2023-03-15T09:34:02;100853.88;;;26.29;66.25
61318;BME280;47201;40.428;-8.436;2023-03-15T09:36:02;100850.44;;;25.71;67.79
61318;BME280;47201;40.428;-8.436;2023-03-15T09:38:03;100843.94;;;25.60;68.57
61318;BME280;47201;40.428;-8.436;2023-03-15T09:40:04;100847.38;;;25.62;69.10
61318;BME280;47201;40.428;-8.436;2023-03-15T09:42:09;100842.31;;;25.43;68.73
61318;BME280;47201;40.428;-8.436;2023-03-15T09:48:25;100839.44;;;26.32;67.43
61318;BME280;47201;40.428;-8.436;2023-03-15T09:50:34;100845.78;;;26.16;68.47
61318;BME280;47201;40.428;-8.436;2023-03-15T09:54:42;100839.81;;;25.55;69.85
61318;BME280;47201;40.428;-8.436;2023-03-15T09:56:59;100837.13;;;25.40;70.58
61318;BME280;47201;40.428;-8.436;2023-03-15T09:59:01;100839.81;;;25.84;69.35
61318;BME280;47201;40.428;-8.436;2023-03-15T10:01:09;100828.16;;;25.56;70.13
61318;BME280;47201;40.428;-8.436;2023-03-15T10:03:22;100833.31;;;25.59;70.78
61318;BME280;47201;40.428;-8.436;2023-03-15T10:07:39;100834.41;;;26.40;69.06
61318;BME280;47201;40.428;-8.436;2023-03-15T10:09:40;100834.25;;;26.56;69.04
61318;BME280;47201;40.428;-8.436;2023-03-15T10:16:40;100829.34;;;27.16;68.63
61318;BME280;47201;40.428;-8.436;2023-03-15T10:18:52;100823.09;;;27.15;67.87
61318;BME280;47201;40.428;-8.436;2023-03-15T10:21:10;100824.16;;;27.00;68.69
61318;BME280;47201;40.428;-8.436;2023-03-15T10:23:33;100829.94;;;26.81;68.08
61318;BME280;47201;40.428;-8.436;2023-03-15T10:25:55;100826.56;;;26.37;69.80
61318;BME280;47201;40.428;-8.436;2023-03-15T10:30:22;100813.47;;;26.32;70.57
61318;BME280;47201;40.428;-8.436;2023-03-15T10:32:26;100807.09;;;26.48;69.89
61318;BME280;47201;40.428;-8.436;2023-03-15T10:34:28;100812.47;;;26.48;70.20
61318;BME280;47201;40.428;-8.436;2023-03-15T10:36:48;100812.66;;;26.44;69.93
61318;BME280;47201;40.428;-8.436;2023-03-15T10:38:49;100803.03;;;26.55;70.52
61318;BME280;47201;40.428;-8.436;2023-03-15T10:40:51;100816.75;;;26.78;69.55
61318;BME280;47201;40.428;-8.436;2023-03-15T10:42:52;100806.34;;;26.86;69.73
61318;BME280;47201;40.428;-8.436;2023-03-15T10:44:56;100807.00;;;27.54;68.69
61318;BME280;47201;40.428;-8.436;2023-03-15T10:47:11;100798.94;;;27.28;68.84
61318;BME280;47201;40.428;-8.436;2023-03-15T10:49:15;100795.84;;;27.84;67.95
61318;BME280;47201;40.428;-8.436;2023-03-15T10:51:42;100801.19;;;27.34;69.19
61318;BME280;47201;40.428;-8.436;2023-03-15T10:53:55;100798.84;;;27.17;69.41
61318;BME280;47201;40.428;-8.436;2023-03-15T10:56:19;100801.41;;;27.94;69.26
61318;BME280;47201;40.428;-8.436;2023-03-15T10:58:25;100790.00;;;28.28;68.64
61318;BME280;47201;40.428;-8.436;2023-03-15T11:00:31;100792.34;;;28.68;67.13
61318;BME280;47201;40.428;-8.436;2023-03-15T11:02:32;100795.88;;;28.93;66.73
61318;BME280;47201;40.428;-8.436;2023-03-15T11:04:33;100785.19;;;28.80;67.25
61318;BME280;47201;40.428;-8.436;2023-03-15T11:06:41;100783.88;;;28.97;66.47
61318;BME280;47201;40.428;-8.436;2023-03-15T11:08:42;100787.06;;;29.02;66.58
61318;BME280;47201;40.428;-8.436;2023-03-15T11:10:43;100778.41;;;29.10;67.00
61318;BME280;47201;40.428;-8.436;2023-03-15T11:12:45;100778.66;;;29.18;67.72
61318;BME280;47201;40.428;-8.436;2023-03-15T11:14:46;100775.94;;;29.07;67.69
61318;BME280;47201;40.428;-8.436;2023-03-15T11:17:07;100763.13;;;29.22;66.84
61318;BME280;47201;40.428;-8.436;2023-03-15T11:19:28;100771.03;;;29.01;67.82
61318;BME280;47201;40.428;-8.436;2023-03-15T11:21:31;100768.50;;;29.22;67.49
61318;BME280;47201;40.428;-8.436;2023-03-15T11:23:37;100763.84;;;29.12;67.48
61318;BME280;47201;40.428;-8.436;2023-03-15T11:25:39;100759.59;;;29.33;67.94